^^
Saratoga-Weather Station Historical Data
Daily Summary for August 5, 2020 Units:  Both    English   Metric
Daily Weekly Monthly Yearly Custom
  High: Low: Average:
Temperature: 43.9 °F /  6.6 °C 38.8 °F /  3.8 °C 41.7 °F /  5.4 °C
Dew Point: 41.2 °F /  5.1 °C 37.6 °F /  3.1 °C 39.6 °F /  4.2 °C
Humidity: 95% 89% 92%
Wind Speed: 10.1mph /  16.3km/h - 0.7mph /  1.2km/h
Wind Gust: 12mph /  19.3km/h - -
Wind- - SW
Pressure: 30.6 in /  1036.2 hPa 30.5 in /  1032.8 hPa -
Precipitation: 0 in /  0.0 mm    
Historical Graphs
 
 
Tabular Data for August 5, 2020
Time Temperature Dew Point Pressure Wind Wind Speed Wind Gust Humidity Rainfall Rate (Hourly) solar
00:00 41.9 °F /  5.5 °C 39.4 °F /  4.1 °C 30.6in /  1035.2hPa WNW 6.9mph /  11.1km/h 9mph /  14.5km/h 91% 0in /  0.0mm 0 W/m2
00:05 41.9 °F /  5.5 °C 39.4 °F /  4.1 °C 30.6in /  1035.2hPa WNW 6.9mph /  11.1km/h 12mph /  19.3km/h 91% 0in /  0.0mm 0 W/m2
00:10 41.9 °F /  5.5 °C 39.4 °F /  4.1 °C 30.6in /  1035.2hPa WSW 10.1mph /  16.3km/h 11mph /  17.7km/h 91% 0in /  0.0mm 0 W/m2
00:15 41.9 °F /  5.5 °C 39.4 °F /  4.1 °C 30.6in /  1035.2hPa West 6mph /  9.7km/h 12mph /  19.3km/h 91% 0in /  0.0mm 0 W/m2
00:20 41.9 °F /  5.5 °C 39.2 °F /  4 °C 30.6in /  1035.2hPa West 6.9mph /  11.1km/h 9mph /  14.5km/h 90% 0in /  0.0mm 0 W/m2
00:25 41.9 °F /  5.5 °C 39.2 °F /  4 °C 30.6in /  1035.2hPa WNW 6.9mph /  11.1km/h 8mph /  12.9km/h 90% 0in /  0.0mm 0 W/m2
00:30 41.7 °F /  5.4 °C 39.2 °F /  4 °C 30.6in /  1035.2hPa WSW 8.1mph /  13km/h 8mph /  12.9km/h 91% 0in /  0.0mm 0 W/m2
00:35 41.7 °F /  5.4 °C 39.2 °F /  4 °C 30.6in /  1035.2hPa West 2.9mph /  4.7km/h 8mph /  12.9km/h 91% 0in /  0.0mm 0 W/m2
00:40 41.7 °F /  5.4 °C 39.2 °F /  4 °C 30.6in /  1035.2hPa West 6mph /  9.7km/h 8mph /  12.9km/h 91% 0in /  0.0mm 0 W/m2
00:45 41.7 °F /  5.4 °C 39.2 °F /  4 °C 30.6in /  1035.2hPa West 8.1mph /  13km/h 8mph /  12.9km/h 91% 0in /  0.0mm 0 W/m2
00:50 41.7 °F /  5.4 °C 39.2 °F /  4 °C 30.6in /  1035.2hPa WSW 2.9mph /  4.7km/h 7mph /  11.3km/h 91% 0in /  0.0mm 0 W/m2
00:55 41.5 °F /  5.3 °C 39.2 °F /  4 °C 30.6in /  1035.2hPa WNW 6mph /  9.7km/h 8mph /  12.9km/h 91% 0in /  0.0mm 0 W/m2
01:00 41.5 °F /  5.3 °C 39.2 °F /  4 °C 30.6in /  1035.6hPa WSW 4mph /  6.4km/h 7mph /  11.3km/h 91% 0in /  0.0mm 0 W/m2
01:05 41.5 °F /  5.3 °C 39.2 °F /  4 °C 30.6in /  1035.2hPa WSW 2.9mph /  4.7km/h 7mph /  11.3km/h 91% 0in /  0.0mm 0 W/m2
01:10 41.5 °F /  5.3 °C 39.2 °F /  4 °C 30.6in /  1035.2hPa WNW 6.9mph /  11.1km/h 9mph /  14.5km/h 91% 0in /  0.0mm 0 W/m2
01:15 41.5 °F /  5.3 °C 39.2 °F /  4 °C 30.6in /  1035.2hPa Calm   8mph /  12.9km/h 91% 0in /  0.0mm 0 W/m2
01:20 41.5 °F /  5.3 °C 39.2 °F /  4 °C 30.6in /  1035.2hPa WSW 4.9mph /  7.9km/h 8mph /  12.9km/h 91% 0in /  0.0mm 0 W/m2
01:25 41.5 °F /  5.3 °C 39.2 °F /  4 °C 30.6in /  1035.2hPa West 6.9mph /  11.1km/h 10mph /  16.1km/h 91% 0in /  0.0mm 0 W/m2
01:30 41.5 °F /  5.3 °C 39.2 °F /  4 °C 30.6in /  1035.2hPa WSW 4.9mph /  7.9km/h 7mph /  11.3km/h 91% 0in /  0.0mm 0 W/m2
01:35 41.5 °F /  5.3 °C 39.2 °F /  4 °C 30.6in /  1035.2hPa West 8.1mph /  13km/h 10mph /  16.1km/h 91% 0in /  0.0mm 0 W/m2
01:41 41.5 °F /  5.3 °C 39.2 °F /  4 °C 30.6in /  1035.2hPa WSW 6.9mph /  11.1km/h 9mph /  14.5km/h 91% 0in /  0.0mm 0 W/m2
01:46 41.5 °F /  5.3 °C 39.2 °F /  4 °C 30.6in /  1035.2hPa WSW 2.9mph /  4.7km/h 7mph /  11.3km/h 91% 0in /  0.0mm 0 W/m2
01:51 41.5 °F /  5.3 °C 39.2 °F /  4 °C 30.6in /  1035.2hPa West 2mph /  3.2km/h 6mph /  9.7km/h 91% 0in /  0.0mm 0 W/m2
01:56 41.5 °F /  5.3 °C 39.2 °F /  4 °C 30.6in /  1035.2hPa West 4mph /  6.4km/h 7mph /  11.3km/h 91% 0in /  0.0mm 0 W/m2
02:01 41.5 °F /  5.3 °C 39.2 °F /  4 °C 30.6in /  1035.2hPa WNW 6.9mph /  11.1km/h 7mph /  11.3km/h 91% 0in /  0.0mm 0 W/m2
02:06 41.5 °F /  5.3 °C 39.2 °F /  4 °C 30.6in /  1035.2hPa WSW 2.9mph /  4.7km/h 7mph /  11.3km/h 91% 0in /  0.0mm 0 W/m2
02:11 41.5 °F /  5.3 °C 39.2 °F /  4 °C 30.6in /  1035.2hPa WSW 4.9mph /  7.9km/h 10mph /  16.1km/h 91% 0in /  0.0mm 0 W/m2
02:16 41.5 °F /  5.3 °C 39.2 °F /  4 °C 30.6in /  1035.2hPa West 2.9mph /  4.7km/h 7mph /  11.3km/h 91% 0in /  0.0mm 0 W/m2
02:21 41.5 °F /  5.3 °C 39.2 °F /  4 °C 30.6in /  1035.2hPa West 0.9mph /  1.4km/h 10mph /  16.1km/h 91% 0in /  0.0mm 0 W/m2
02:26 41.5 °F /  5.3 °C 39.2 °F /  4 °C 30.6in /  1035.6hPa NW 4mph /  6.4km/h 5mph /  8km/h 91% 0in /  0.0mm 0 W/m2
02:31 41.5 °F /  5.3 °C 39.2 °F /  4 °C 30.6in /  1035.2hPa WSW 4mph /  6.4km/h 10mph /  16.1km/h 91% 0in /  0.0mm 0 W/m2
02:36 41.5 °F /  5.3 °C 39.2 °F /  4 °C 30.6in /  1035.6hPa WNW 2mph /  3.2km/h 3mph /  4.8km/h 91% 0in /  0.0mm 0 W/m2
02:41 41.5 °F /  5.3 °C 39.2 °F /  4 °C 30.6in /  1035.6hPa West 2mph /  3.2km/h 7mph /  11.3km/h 91% 0in /  0.0mm 0 W/m2
02:46 41.5 °F /  5.3 °C 39.2 °F /  4 °C 30.6in /  1035.6hPa WSW 4mph /  6.4km/h 5mph /  8km/h 91% 0in /  0.0mm 0 W/m2
02:52 41.5 °F /  5.3 °C 39.2 °F /  4 °C 30.6in /  1035.6hPa Calm   6mph /  9.7km/h 91% 0in /  0.0mm 0 W/m2
02:57 41.5 °F /  5.3 °C 39.2 °F /  4 °C 30.6in /  1035.2hPa WSW 4.9mph /  7.9km/h 8mph /  12.9km/h 91% 0in /  0.0mm 0 W/m2
03:02 41.5 °F /  5.3 °C 39.2 °F /  4 °C 30.6in /  1035.2hPa WSW 4.9mph /  7.9km/h 6mph /  9.7km/h 91% 0in /  0.0mm 0 W/m2
03:07 41.5 °F /  5.3 °C 39.2 °F /  4 °C 30.6in /  1035.6hPa Calm   7mph /  11.3km/h 91% 0in /  0.0mm 0 W/m2
03:12 41.5 °F /  5.3 °C 39.2 °F /  4 °C 30.6in /  1035.6hPa Calm   7mph /  11.3km/h 91% 0in /  0.0mm 0 W/m2
03:17 41.5 °F /  5.3 °C 39.2 °F /  4 °C 30.6in /  1035.6hPa Calm   1mph /  1.6km/h 91% 0in /  0.0mm 0 W/m2
03:22 41.5 °F /  5.3 °C 39.2 °F /  4 °C 30.6in /  1035.6hPa Calm   2mph /  3.2km/h 91% 0in /  0.0mm 0 W/m2
03:27 41.5 °F /  5.3 °C 39.2 °F /  4 °C 30.6in /  1035.6hPa Calm   3mph /  4.8km/h 91% 0in /  0.0mm 0 W/m2
03:32 41.5 °F /  5.3 °C 39.2 °F /  4 °C 30.6in /  1035.6hPa Calm   4mph /  6.4km/h 91% 0in /  0.0mm 0 W/m2
03:37 41.5 °F /  5.3 °C 39.2 °F /  4 °C 30.6in /  1035.6hPa WNW 2.9mph /  4.7km/h 5mph /  8km/h 91% 0in /  0.0mm 0 W/m2
03:42 41.5 °F /  5.3 °C 39.2 °F /  4 °C 30.6in /  1035.6hPa Calm   2mph /  3.2km/h 91% 0in /  0.0mm 0 W/m2
03:47 41.5 °F /  5.3 °C 39.2 °F /  4 °C 30.6in /  1035.6hPa Calm     91% 0in /  0.0mm 0 W/m2
03:52 41.4 °F /  5.2 °C 39 °F /  3.9 °C 30.6in /  1035.6hPa Calm     91% 0in /  0.0mm 0 W/m2
03:57 41.4 °F /  5.2 °C 39 °F /  3.9 °C 30.6in /  1035.9hPa Calm     91% 0in /  0.0mm 0 W/m2
04:02 41.4 °F /  5.2 °C 39 °F /  3.9 °C 30.6in /  1035.6hPa Calm     91% 0in /  0.0mm 0 W/m2
04:07 41.4 °F /  5.2 °C 39 °F /  3.9 °C 30.6in /  1035.6hPa Calm     91% 0in /  0.0mm 0 W/m2
04:12 41.4 °F /  5.2 °C 39 °F /  3.9 °C 30.6in /  1035.6hPa Calm     91% 0in /  0.0mm 0 W/m2
04:17 41.4 °F /  5.2 °C 39.2 °F /  4 °C 30.6in /  1035.6hPa Calm     92% 0in /  0.0mm 0 W/m2
04:22 41.4 °F /  5.2 °C 39.2 °F /  4 °C 30.6in /  1035.6hPa Calm     92% 0in /  0.0mm 0 W/m2
04:27 41.4 °F /  5.2 °C 39.2 °F /  4 °C 30.6in /  1035.6hPa Calm     92% 0in /  0.0mm 0 W/m2
04:32 41.4 °F /  5.2 °C 39.2 °F /  4 °C 30.6in /  1035.6hPa Calm     92% 0in /  0.0mm 0 W/m2
04:37 41.4 °F /  5.2 °C 39.2 °F /  4 °C 30.6in /  1035.6hPa NNW 2mph /  3.2km/h 3mph /  4.8km/h 92% 0in /  0.0mm 0 W/m2
04:42 41.4 °F /  5.2 °C 39.2 °F /  4 °C 30.6in /  1035.6hPa Calm     92% 0in /  0.0mm 0 W/m2
04:47 41.4 °F /  5.2 °C 39.2 °F /  4 °C 30.6in /  1035.6hPa Calm   2mph /  3.2km/h 92% 0in /  0.0mm 0 W/m2
04:52 41.4 °F /  5.2 °C 39.2 °F /  4 °C 30.6in /  1035.6hPa Calm     92% 0in /  0.0mm 0 W/m2
04:57 41.4 °F /  5.2 °C 39.2 °F /  4 °C 30.6in /  1035.6hPa Calm     92% 0in /  0.0mm 0 W/m2
05:02 41.4 °F /  5.2 °C 39.2 °F /  4 °C 30.6in /  1035.6hPa Calm     92% 0in /  0.0mm 0 W/m2
05:07 41.2 °F /  5.1 °C 39 °F /  3.9 °C 30.6in /  1035.9hPa Calm     92% 0in /  0.0mm 0 W/m2
05:12 41.2 °F /  5.1 °C 39 °F /  3.9 °C 30.6in /  1035.6hPa WSW 0.9mph /  1.4km/h 1mph /  1.6km/h 92% 0in /  0.0mm 0 W/m2
05:17 41.2 °F /  5.1 °C 39 °F /  3.9 °C 30.6in /  1035.6hPa Calm     92% 0in /  0.0mm 0 W/m2
05:22 41.2 °F /  5.1 °C 39 °F /  3.9 °C 30.6in /  1035.6hPa Calm     92% 0in /  0.0mm 0 W/m2
05:27 41.2 °F /  5.1 °C 39 °F /  3.9 °C 30.6in /  1035.6hPa Calm     92% 0in /  0.0mm 0 W/m2
05:32 41.2 °F /  5.1 °C 39 °F /  3.9 °C 30.6in /  1035.6hPa Calm     92% 0in /  0.0mm 0 W/m2
05:38 41 °F /  5 °C 38.8 °F /  3.8 °C 30.6in /  1035.6hPa Calm     92% 0in /  0.0mm 0 W/m2
05:43 40.8 °F /  4.9 °C 38.7 °F /  3.7 °C 30.6in /  1035.6hPa Calm     92% 0in /  0.0mm 0 W/m2
05:48 40.8 °F /  4.9 °C 38.7 °F /  3.7 °C 30.6in /  1035.6hPa Calm     92% 0in /  0.0mm 0 W/m2
05:53 40.8 °F /  4.9 °C 38.7 °F /  3.7 °C 30.6in /  1035.6hPa Calm     92% 0in /  0.0mm 0 W/m2
05:58 40.8 °F /  4.9 °C 38.7 °F /  3.7 °C 30.6in /  1035.6hPa Calm     92% 0in /  0.0mm 0 W/m2
06:03 40.8 °F /  4.9 °C 38.7 °F /  3.7 °C 30.6in /  1035.6hPa Calm     92% 0in /  0.0mm 0 W/m2
06:08 40.8 °F /  4.9 °C 38.7 °F /  3.7 °C 30.6in /  1035.6hPa Calm     92% 0in /  0.0mm 0 W/m2
06:13 40.8 °F /  4.9 °C 39 °F /  3.9 °C 30.6in /  1035.6hPa Calm   3mph /  4.8km/h 93% 0in /  0.0mm 0 W/m2
06:18 40.8 °F /  4.9 °C 39 °F /  3.9 °C 30.6in /  1035.6hPa Calm   1mph /  1.6km/h 93% 0in /  0.0mm 0 W/m2
06:23 41 °F /  5 °C 39.2 °F /  4 °C 30.6in /  1035.6hPa Calm     93% 0in /  0.0mm 0 W/m2
06:28 41 °F /  5 °C 39.2 °F /  4 °C 30.6in /  1035.6hPa WSW 0.9mph /  1.4km/h 3mph /  4.8km/h 93% 0in /  0.0mm 0 W/m2
06:33 41 °F /  5 °C 38.8 °F /  3.8 °C 30.6in /  1035.6hPa Calm   1mph /  1.6km/h 92% 0in /  0.0mm 0 W/m2
06:38 41 °F /  5 °C 39.2 °F /  4 °C 30.6in /  1035.6hPa Calm     93% 0in /  0.0mm 0 W/m2
06:43 40.8 °F /  4.9 °C 39 °F /  3.9 °C 30.6in /  1035.6hPa Calm     93% 0in /  0.0mm 0 W/m2
06:48 40.8 °F /  4.9 °C 39 °F /  3.9 °C 30.6in /  1035.6hPa Calm     93% 0in /  0.0mm 0 W/m2
06:53 40.6 °F /  4.8 °C 38.8 °F /  3.8 °C 30.6in /  1035.6hPa Calm     93% 0in /  0.0mm 0 W/m2
06:58 40.6 °F /  4.8 °C 38.8 °F /  3.8 °C 30.6in /  1035.6hPa Calm     93% 0in /  0.0mm 0 W/m2
07:04 40.6 °F /  4.8 °C 38.8 °F /  3.8 °C 30.6in /  1035.6hPa Calm     93% 0in /  0.0mm 0 W/m2
07:09 40.6 °F /  4.8 °C 38.8 °F /  3.8 °C 30.6in /  1035.6hPa Calm     93% 0in /  0.0mm 0 W/m2
07:14 40.6 °F /  4.8 °C 38.8 °F /  3.8 °C 30.6in /  1035.6hPa Calm     93% 0in /  0.0mm 0 W/m2
07:19 40.6 °F /  4.8 °C 38.8 °F /  3.8 °C 30.6in /  1035.6hPa Calm     93% 0in /  0.0mm 0 W/m2
07:24 40.5 °F /  4.7 °C 38.7 °F /  3.7 °C 30.6in /  1035.6hPa Calm     93% 0in /  0.0mm 0 W/m2
07:29 40.5 °F /  4.7 °C 38.7 °F /  3.7 °C 30.6in /  1035.6hPa Calm     93% 0in /  0.0mm 0 W/m2
07:34 40.3 °F /  4.6 °C 38.5 °F /  3.6 °C 30.6in /  1035.6hPa Calm     93% 0in /  0.0mm 0 W/m2
07:39 40.3 °F /  4.6 °C 38.5 °F /  3.6 °C 30.6in /  1035.6hPa Calm     93% 0in /  0.0mm 0 W/m2
07:44 40.1 °F /  4.5 °C 38.3 °F /  3.5 °C 30.6in /  1035.6hPa Calm     93% 0in /  0.0mm 0 W/m2
07:49 39.9 °F /  4.4 °C 38.1 °F /  3.4 °C 30.6in /  1035.6hPa Calm     93% 0in /  0.0mm 0 W/m2
07:54 39.9 °F /  4.4 °C 38.1 °F /  3.4 °C 30.6in /  1035.6hPa Calm     93% 0in /  0.0mm 0 W/m2
07:59 39.9 °F /  4.4 °C 38.3 °F /  3.5 °C 30.6in /  1035.9hPa Calm     94% 0in /  0.0mm 0 W/m2
08:04 39.7 °F /  4.3 °C 38.1 °F /  3.4 °C 30.6in /  1035.6hPa Calm     94% 0in /  0.0mm 0 W/m2
08:10 39.7 °F /  4.3 °C 38.1 °F /  3.4 °C 30.6in /  1035.9hPa Calm     94% 0in /  0.0mm 0 W/m2
08:15 39.7 °F /  4.3 °C 38.1 °F /  3.4 °C 30.6in /  1035.9hPa Calm     94% 0in /  0.0mm 0 W/m2
08:20 39.6 °F /  4.2 °C 37.9 °F /  3.3 °C 30.6in /  1035.9hPa Calm     94% 0in /  0.0mm 0 W/m2
08:25 39.6 °F /  4.2 °C 37.9 °F /  3.3 °C 30.6in /  1035.9hPa Calm     94% 0in /  0.0mm 0 W/m2
08:30 39.6 °F /  4.2 °C 37.9 °F /  3.3 °C 30.6in /  1035.9hPa Calm     94% 0in /  0.0mm 0 W/m2
08:35 39.6 °F /  4.2 °C 37.9 °F /  3.3 °C 30.6in /  1035.9hPa Calm     94% 0in /  0.0mm 0 W/m2
08:40 39.6 °F /  4.2 °C 37.9 °F /  3.3 °C 30.6in /  1035.9hPa Calm     94% 0in /  0.0mm 5 W/m2
08:45 39.6 °F /  4.2 °C 37.9 °F /  3.3 °C 30.6in /  1035.9hPa Calm     94% 0in /  0.0mm 7 W/m2
08:50 39.6 °F /  4.2 °C 38.3 °F /  3.5 °C 30.6in /  1035.9hPa Calm     95% 0in /  0.0mm 7 W/m2
08:55 39.6 °F /  4.2 °C 37.9 °F /  3.3 °C 30.6in /  1035.9hPa Calm     94% 0in /  0.0mm 9 W/m2
09:00 39.7 °F /  4.3 °C 38.5 °F /  3.6 °C 30.6in /  1036.2hPa Calm     95% 0in /  0.0mm 12 W/m2
09:05 39.7 °F /  4.3 °C 38.5 °F /  3.6 °C 30.6in /  1036.2hPa Calm     95% 0in /  0.0mm 14 W/m2
09:10 39.9 °F /  4.4 °C 38.7 °F /  3.7 °C 30.6in /  1035.9hPa Calm     95% 0in /  0.0mm 14 W/m2
09:15 39.9 °F /  4.4 °C 38.7 °F /  3.7 °C 30.6in /  1036.2hPa Calm     95% 0in /  0.0mm 19 W/m2
09:21 40.1 °F /  4.5 °C 38.8 °F /  3.8 °C 30.6in /  1036.2hPa Calm     95% 0in /  0.0mm 19 W/m2
09:26 40.1 °F /  4.5 °C 38.8 °F /  3.8 °C 30.6in /  1035.9hPa Calm     95% 0in /  0.0mm 23 W/m2
09:31 40.3 °F /  4.6 °C 39 °F /  3.9 °C 30.6in /  1036.2hPa Calm     95% 0in /  0.0mm 25 W/m2
09:36 40.3 °F /  4.6 °C 39 °F /  3.9 °C 30.6in /  1036.2hPa Calm     95% 0in /  0.0mm 28 W/m2
09:41 40.5 °F /  4.7 °C 39.2 °F /  4 °C 30.6in /  1036.2hPa Calm     95% 0in /  0.0mm 30 W/m2
09:46 40.5 °F /  4.7 °C 39.2 °F /  4 °C 30.6in /  1036.2hPa Calm     95% 0in /  0.0mm 32 W/m2
09:51 40.5 °F /  4.7 °C 39.2 °F /  4 °C 30.6in /  1036.2hPa Calm     95% 0in /  0.0mm 35 W/m2
09:56 40.6 °F /  4.8 °C 39.4 °F /  4.1 °C 30.6in /  1036.2hPa Calm     95% 0in /  0.0mm 37 W/m2
10:01 40.6 °F /  4.8 °C 39.4 °F /  4.1 °C 30.6in /  1036.2hPa Calm     95% 0in /  0.0mm 40 W/m2
10:06 40.8 °F /  4.9 °C 39.6 °F /  4.2 °C 30.6in /  1036.2hPa Calm     95% 0in /  0.0mm 46 W/m2
10:11 40.8 °F /  4.9 °C 39.6 °F /  4.2 °C 30.6in /  1036.2hPa Calm     95% 0in /  0.0mm 49 W/m2
10:16 41 °F /  5 °C 39.4 °F /  4.1 °C 30.6in /  1036.2hPa Calm     94% 0in /  0.0mm 49 W/m2
10:21 41.2 °F /  5.1 °C 39.6 °F /  4.2 °C 30.6in /  1036.2hPa Calm     94% 0in /  0.0mm 49 W/m2
10:26 41.4 °F /  5.2 °C 39.7 °F /  4.3 °C 30.6in /  1036.2hPa Calm     94% 0in /  0.0mm 54 W/m2
10:31 41.4 °F /  5.2 °C 39.7 °F /  4.3 °C 30.6in /  1036.2hPa Calm     94% 0in /  0.0mm 53 W/m2
10:36 41.5 °F /  5.3 °C 39.9 °F /  4.4 °C 30.6in /  1036.2hPa Calm     94% 0in /  0.0mm 56 W/m2
10:41 41.5 °F /  5.3 °C 39.9 °F /  4.4 °C 30.6in /  1036.2hPa Calm     94% 0in /  0.0mm 58 W/m2
10:46 41.7 °F /  5.4 °C 40.1 °F /  4.5 °C 30.6in /  1035.9hPa Calm     94% 0in /  0.0mm 62 W/m2
10:51 41.7 °F /  5.4 °C 39.9 °F /  4.4 °C 30.6in /  1035.9hPa Calm     93% 0in /  0.0mm 70 W/m2
10:57 41.9 °F /  5.5 °C 40.1 °F /  4.5 °C 30.6in /  1035.9hPa Calm     93% 0in /  0.0mm 69 W/m2
11:02 42.1 °F /  5.6 °C 40.3 °F /  4.6 °C 30.6in /  1035.9hPa Calm     93% 0in /  0.0mm 72 W/m2
11:07 42.1 °F /  5.6 °C 40.3 °F /  4.6 °C 30.6in /  1035.9hPa Calm     93% 0in /  0.0mm 74 W/m2
11:12 42.3 °F /  5.7 °C 40.5 °F /  4.7 °C 30.6in /  1035.9hPa Calm     93% 0in /  0.0mm 79 W/m2
11:17 42.3 °F /  5.7 °C 40.5 °F /  4.7 °C 30.6in /  1035.9hPa Calm     93% 0in /  0.0mm 83 W/m2
11:22 42.4 °F /  5.8 °C 40.6 °F /  4.8 °C 30.6in /  1035.9hPa Calm     93% 0in /  0.0mm 88 W/m2
11:27 42.4 °F /  5.8 °C 40.6 °F /  4.8 °C 30.6in /  1035.9hPa Calm     93% 0in /  0.0mm 83 W/m2
11:32 42.6 °F /  5.9 °C 40.5 °F /  4.7 °C 30.6in /  1035.9hPa Calm     92% 0in /  0.0mm 84 W/m2
11:37 42.8 °F /  6 °C 40.6 °F /  4.8 °C 30.6in /  1035.9hPa Calm     92% 0in /  0.0mm 91 W/m2
11:42 43 °F /  6.1 °C 40.8 °F /  4.9 °C 30.6in /  1035.9hPa Calm     92% 0in /  0.0mm 90 W/m2
11:47 43.2 °F /  6.2 °C 40.6 °F /  4.8 °C 30.6in /  1035.9hPa Calm     91% 0in /  0.0mm 90 W/m2
11:52 43.3 °F /  6.3 °C 40.8 °F /  4.9 °C 30.6in /  1035.9hPa Calm     91% 0in /  0.0mm 91 W/m2
11:57 43.3 °F /  6.3 °C 40.8 °F /  4.9 °C 30.6in /  1035.9hPa Calm     91% 0in /  0.0mm 81 W/m2
12:02 43.3 °F /  6.3 °C 40.8 °F /  4.9 °C 30.6in /  1035.9hPa Calm     91% 0in /  0.0mm 77 W/m2
12:08 43.5 °F /  6.4 °C 40.8 °F /  4.9 °C 30.6in /  1035.9hPa Calm     90% 0in /  0.0mm 77 W/m2
12:13 43.5 °F /  6.4 °C 40.8 °F /  4.9 °C 30.6in /  1035.9hPa Calm     90% 0in /  0.0mm 81 W/m2
12:18 43.5 °F /  6.4 °C 40.8 °F /  4.9 °C 30.6in /  1035.9hPa Calm     90% 0in /  0.0mm 84 W/m2
12:23 43.5 °F /  6.4 °C 40.8 °F /  4.9 °C 30.6in /  1035.9hPa ESE 0.9mph /  1.4km/h 1mph /  1.6km/h 90% 0in /  0.0mm 77 W/m2
12:28 43.5 °F /  6.4 °C 40.8 °F /  4.9 °C 30.6in /  1035.9hPa Calm   1mph /  1.6km/h 90% 0in /  0.0mm 79 W/m2
12:33 43.5 °F /  6.4 °C 40.8 °F /  4.9 °C 30.6in /  1035.9hPa Calm     90% 0in /  0.0mm 77 W/m2
12:38 43.5 °F /  6.4 °C 40.8 °F /  4.9 °C 30.6in /  1035.6hPa Calm     90% 0in /  0.0mm 83 W/m2
12:43 43.5 °F /  6.4 °C 40.8 °F /  4.9 °C 30.6in /  1035.6hPa Calm     90% 0in /  0.0mm 81 W/m2
12:48 43.7 °F /  6.5 °C 41 °F /  5 °C 30.6in /  1035.6hPa Calm     90% 0in /  0.0mm 76 W/m2
12:53 43.9 °F /  6.6 °C 41.2 °F /  5.1 °C 30.6in /  1035.6hPa Calm     90% 0in /  0.0mm 74 W/m2
12:58 43.9 °F /  6.6 °C 40.8 °F /  4.9 °C 30.6in /  1035.6hPa Calm     89% 0in /  0.0mm 70 W/m2
13:03 43.7 °F /  6.5 °C 40.6 °F /  4.8 °C 30.6in /  1035.6hPa Calm     89% 0in /  0.0mm 72 W/m2
13:08 43.9 °F /  6.6 °C 41.2 °F /  5.1 °C 30.6in /  1035.6hPa Calm     90% 0in /  0.0mm 79 W/m2
13:13 43.9 °F /  6.6 °C 41.2 °F /  5.1 °C 30.6in /  1035.6hPa Calm     90% 0in /  0.0mm 74 W/m2
13:19 43.9 °F /  6.6 °C 40.8 °F /  4.9 °C 30.6in /  1035.2hPa Calm     89% 0in /  0.0mm 76 W/m2
13:24 43.9 °F /  6.6 °C 40.8 °F /  4.9 °C 30.6in /  1035.2hPa Calm     89% 0in /  0.0mm 76 W/m2
13:29 43.9 °F /  6.6 °C 41.2 °F /  5.1 °C 30.6in /  1035.2hPa ESE 2mph /  3.2km/h 2mph /  3.2km/h 90% 0in /  0.0mm 76 W/m2
13:34 43.9 °F /  6.6 °C 41.2 °F /  5.1 °C 30.6in /  1035.2hPa ESE 2mph /  3.2km/h 3mph /  4.8km/h 90% 0in /  0.0mm 77 W/m2
13:39 43.7 °F /  6.5 °C 41 °F /  5 °C 30.6in /  1035.2hPa ESE 2mph /  3.2km/h 2mph /  3.2km/h 90% 0in /  0.0mm 74 W/m2
13:44 43.7 °F /  6.5 °C 41 °F /  5 °C 30.6in /  1035.2hPa ESE 2.9mph /  4.7km/h 4mph /  6.4km/h 90% 0in /  0.0mm 67 W/m2
13:49 43.7 °F /  6.5 °C 40.6 °F /  4.8 °C 30.6in /  1034.9hPa Calm     89% 0in /  0.0mm 63 W/m2
13:54 43.7 °F /  6.5 °C 41 °F /  5 °C 30.6in /  1034.9hPa Calm   3mph /  4.8km/h 90% 0in /  0.0mm 60 W/m2
13:59 43.9 °F /  6.6 °C 41.2 °F /  5.1 °C 30.6in /  1034.9hPa Calm     90% 0in /  0.0mm 56 W/m2
14:04 43.9 °F /  6.6 °C 41.2 °F /  5.1 °C 30.6in /  1035.2hPa ESE 0.9mph /  1.4km/h 4mph /  6.4km/h 90% 0in /  0.0mm 49 W/m2
14:09 43.9 °F /  6.6 °C 41.2 °F /  5.1 °C 30.6in /  1034.9hPa ESE 2mph /  3.2km/h 4mph /  6.4km/h 90% 0in /  0.0mm 46 W/m2
14:14 43.7 °F /  6.5 °C 41 °F /  5 °C 30.6in /  1034.9hPa SE 0.9mph /  1.4km/h 4mph /  6.4km/h 90% 0in /  0.0mm 42 W/m2
14:19 43.7 °F /  6.5 °C 41 °F /  5 °C 30.6in /  1034.9hPa ESE 2.9mph /  4.7km/h 3mph /  4.8km/h 90% 0in /  0.0mm 40 W/m2
14:24 43.5 °F /  6.4 °C 40.8 °F /  4.9 °C 30.6in /  1034.9hPa SE 0.9mph /  1.4km/h 3mph /  4.8km/h 90% 0in /  0.0mm 40 W/m2
14:29 43.5 °F /  6.4 °C 40.8 °F /  4.9 °C 30.6in /  1034.9hPa ESE 2.9mph /  4.7km/h 3mph /  4.8km/h 90% 0in /  0.0mm 40 W/m2
14:34 43.5 °F /  6.4 °C 40.8 °F /  4.9 °C 30.6in /  1034.9hPa ESE 2mph /  3.2km/h 3mph /  4.8km/h 90% 0in /  0.0mm 42 W/m2
14:39 43.5 °F /  6.4 °C 40.8 °F /  4.9 °C 30.6in /  1034.9hPa SE 2mph /  3.2km/h 4mph /  6.4km/h 90% 0in /  0.0mm 40 W/m2
14:44 43.5 °F /  6.4 °C 40.8 °F /  4.9 °C 30.6in /  1034.9hPa Calm     90% 0in /  0.0mm 42 W/m2
14:49 43.5 °F /  6.4 °C 40.8 °F /  4.9 °C 30.6in /  1034.9hPa SE 0.9mph /  1.4km/h 4mph /  6.4km/h 90% 0in /  0.0mm 42 W/m2
14:54 43.5 °F /  6.4 °C 40.8 °F /  4.9 °C 30.6in /  1034.9hPa SE 2.9mph /  4.7km/h 3mph /  4.8km/h 90% 0in /  0.0mm 44 W/m2
14:59 43.5 °F /  6.4 °C 40.8 °F /  4.9 °C 30.6in /  1034.9hPa SE 2mph /  3.2km/h 2mph /  3.2km/h 90% 0in /  0.0mm 39 W/m2
15:04 43.5 °F /  6.4 °C 40.8 °F /  4.9 °C 30.6in /  1034.9hPa Calm     90% 0in /  0.0mm 33 W/m2
15:09 43.7 °F /  6.5 °C 41 °F /  5 °C 30.6in /  1034.9hPa Calm     90% 0in /  0.0mm 32 W/m2
15:14 43.7 °F /  6.5 °C 41 °F /  5 °C 30.6in /  1034.9hPa Calm     90% 0in /  0.0mm 28 W/m2
15:19 43.7 °F /  6.5 °C 41 °F /  5 °C 30.6in /  1034.9hPa Calm     90% 0in /  0.0mm 26 W/m2
15:24 43.7 °F /  6.5 °C 41 °F /  5 °C 30.6in /  1034.9hPa Calm     90% 0in /  0.0mm 26 W/m2
15:29 43.7 °F /  6.5 °C 41 °F /  5 °C 30.6in /  1034.9hPa Calm     90% 0in /  0.0mm 26 W/m2
15:34 43.7 °F /  6.5 °C 41 °F /  5 °C 30.6in /  1034.9hPa Calm     90% 0in /  0.0mm 23 W/m2
15:39 43.7 °F /  6.5 °C 41 °F /  5 °C 30.6in /  1034.9hPa Calm     90% 0in /  0.0mm 21 W/m2
15:44 43.7 °F /  6.5 °C 41 °F /  5 °C 30.6in /  1034.9hPa Calm     90% 0in /  0.0mm 19 W/m2
15:49 43.7 °F /  6.5 °C 41 °F /  5 °C 30.6in /  1035.2hPa Calm     90% 0in /  0.0mm 16 W/m2
15:54 43.7 °F /  6.5 °C 41 °F /  5 °C 30.6in /  1035.2hPa Calm   1mph /  1.6km/h 90% 0in /  0.0mm 14 W/m2
15:59 43.7 °F /  6.5 °C 41 °F /  5 °C 30.6in /  1035.2hPa Calm     90% 0in /  0.0mm 14 W/m2
16:04 43.5 °F /  6.4 °C 40.8 °F /  4.9 °C 30.6in /  1035.2hPa ESE 0.9mph /  1.4km/h 2mph /  3.2km/h 90% 0in /  0.0mm 12 W/m2
16:09 43.5 °F /  6.4 °C 40.8 °F /  4.9 °C 30.6in /  1035.2hPa Calm   2mph /  3.2km/h 90% 0in /  0.0mm 11 W/m2
16:14 43.3 °F /  6.3 °C 40.6 °F /  4.8 °C 30.6in /  1035.2hPa Calm   3mph /  4.8km/h 90% 0in /  0.0mm 9 W/m2
16:19 43.3 °F /  6.3 °C 40.6 °F /  4.8 °C 30.6in /  1035.2hPa Calm   2mph /  3.2km/h 90% 0in /  0.0mm 7 W/m2
16:24 43.3 °F /  6.3 °C 40.6 °F /  4.8 °C 30.6in /  1035.2hPa Calm     90% 0in /  0.0mm 7 W/m2
16:29 43.3 °F /  6.3 °C 40.6 °F /  4.8 °C 30.6in /  1035.2hPa Calm   3mph /  4.8km/h 90% 0in /  0.0mm 5 W/m2
16:34 43.3 °F /  6.3 °C 40.6 °F /  4.8 °C 30.6in /  1035.2hPa Calm   1mph /  1.6km/h 90% 0in /  0.0mm 0 W/m2
16:39 43.2 °F /  6.2 °C 40.5 °F /  4.7 °C 30.6in /  1035.2hPa SE 0.9mph /  1.4km/h 1mph /  1.6km/h 90% 0in /  0.0mm 0 W/m2
16:44 43.2 °F /  6.2 °C 40.6 °F /  4.8 °C 30.6in /  1035.2hPa Calm   3mph /  4.8km/h 91% 0in /  0.0mm 0 W/m2
16:49 43.2 °F /  6.2 °C 40.6 °F /  4.8 °C 30.6in /  1035.2hPa SE 0.9mph /  1.4km/h 2mph /  3.2km/h 91% 0in /  0.0mm 0 W/m2
16:54 43 °F /  6.1 °C 40.5 °F /  4.7 °C 30.6in /  1035.2hPa SE 0.9mph /  1.4km/h 2mph /  3.2km/h 91% 0in /  0.0mm 0 W/m2
16:59 43 °F /  6.1 °C 40.5 °F /  4.7 °C 30.6in /  1034.9hPa Calm     91% 0in /  0.0mm 0 W/m2
17:04 42.8 °F /  6 °C 40.3 °F /  4.6 °C 30.6in /  1035.2hPa Calm   2mph /  3.2km/h 91% 0in /  0.0mm 0 W/m2
17:09 42.8 °F /  6 °C 40.3 °F /  4.6 °C 30.6in /  1035.2hPa Calm   2mph /  3.2km/h 91% 0in /  0.0mm 0 W/m2
17:14 42.8 °F /  6 °C 40.3 °F /  4.6 °C 30.6in /  1035.2hPa Calm     91% 0in /  0.0mm 0 W/m2
17:19 42.6 °F /  5.9 °C 40.1 °F /  4.5 °C 30.6in /  1034.9hPa Calm   3mph /  4.8km/h 91% 0in /  0.0mm 0 W/m2
17:24 42.6 °F /  5.9 °C 40.1 °F /  4.5 °C 30.6in /  1034.9hPa Calm   1mph /  1.6km/h 91% 0in /  0.0mm 0 W/m2
17:29 42.6 °F /  5.9 °C 40.1 °F /  4.5 °C 30.6in /  1034.9hPa SE 2mph /  3.2km/h 3mph /  4.8km/h 91% 0in /  0.0mm 0 W/m2
17:34 42.4 °F /  5.8 °C 39.9 °F /  4.4 °C 30.6in /  1034.9hPa Calm   2mph /  3.2km/h 91% 0in /  0.0mm 0 W/m2
17:39 42.4 °F /  5.8 °C 39.9 °F /  4.4 °C 30.6in /  1034.9hPa Calm     91% 0in /  0.0mm 0 W/m2
17:44 42.4 °F /  5.8 °C 39.9 °F /  4.4 °C 30.6in /  1034.9hPa Calm     91% 0in /  0.0mm 0 W/m2
17:49 42.4 °F /  5.8 °C 39.9 °F /  4.4 °C 30.6in /  1034.9hPa Calm   1mph /  1.6km/h 91% 0in /  0.0mm 0 W/m2
17:54 42.4 °F /  5.8 °C 39.9 °F /  4.4 °C 30.6in /  1034.9hPa Calm   1mph /  1.6km/h 91% 0in /  0.0mm 0 W/m2
17:59 42.3 °F /  5.7 °C 39.7 °F /  4.3 °C 30.6in /  1034.9hPa Calm     91% 0in /  0.0mm 0 W/m2
18:04 42.3 °F /  5.7 °C 39.7 °F /  4.3 °C 30.6in /  1034.9hPa Calm     91% 0in /  0.0mm 0 W/m2
18:09 42.3 °F /  5.7 °C 40.1 °F /  4.5 °C 30.6in /  1034.9hPa Calm     92% 0in /  0.0mm 0 W/m2
18:14 42.1 °F /  5.6 °C 39.9 °F /  4.4 °C 30.6in /  1034.9hPa Calm     92% 0in /  0.0mm 0 W/m2
18:19 42.1 °F /  5.6 °C 39.9 °F /  4.4 °C 30.6in /  1034.9hPa Calm     92% 0in /  0.0mm 0 W/m2
18:24 42.1 °F /  5.6 °C 39.9 °F /  4.4 °C 30.6in /  1034.9hPa Calm     92% 0in /  0.0mm 0 W/m2
18:29 42.1 °F /  5.6 °C 39.9 °F /  4.4 °C 30.6in /  1034.5hPa Calm     92% 0in /  0.0mm 0 W/m2
18:35 42.1 °F /  5.6 °C 39.9 °F /  4.4 °C 30.6in /  1034.5hPa Calm     92% 0in /  0.0mm 0 W/m2
18:40 42.1 °F /  5.6 °C 39.9 °F /  4.4 °C 30.6in /  1034.5hPa Calm     92% 0in /  0.0mm 0 W/m2
18:45 42.1 °F /  5.6 °C 39.9 °F /  4.4 °C 30.6in /  1034.5hPa Calm     92% 0in /  0.0mm 0 W/m2
18:50 41.9 °F /  5.5 °C 39.7 °F /  4.3 °C 30.6in /  1034.5hPa Calm     92% 0in /  0.0mm 0 W/m2
18:55 41.9 °F /  5.5 °C 39.7 °F /  4.3 °C 30.6in /  1034.5hPa Calm     92% 0in /  0.0mm 0 W/m2
19:00 41.7 °F /  5.4 °C 39.6 °F /  4.2 °C 30.6in /  1034.5hPa Calm     92% 0in /  0.0mm 0 W/m2
19:05 41.7 °F /  5.4 °C 39.6 °F /  4.2 °C 30.6in /  1034.5hPa Calm     92% 0in /  0.0mm 0 W/m2
19:10 41.7 °F /  5.4 °C 39.6 °F /  4.2 °C 30.6in /  1034.5hPa Calm     92% 0in /  0.0mm 0 W/m2
19:15 41.7 °F /  5.4 °C 39.6 °F /  4.2 °C 30.6in /  1034.5hPa Calm     92% 0in /  0.0mm 0 W/m2
19:20 41.7 °F /  5.4 °C 39.9 °F /  4.4 °C 30.6in /  1034.5hPa Calm     93% 0in /  0.0mm 0 W/m2
19:25 41.5 °F /  5.3 °C 39.7 °F /  4.3 °C 30.6in /  1034.5hPa Calm     93% 0in /  0.0mm 0 W/m2
19:30 41.5 °F /  5.3 °C 39.7 °F /  4.3 °C 30.6in /  1034.5hPa Calm   2mph /  3.2km/h 93% 0in /  0.0mm 0 W/m2
19:35 41.7 °F /  5.4 °C 39.9 °F /  4.4 °C 30.6in /  1034.5hPa Calm   1mph /  1.6km/h 93% 0in /  0.0mm 0 W/m2
19:40 41.7 °F /  5.4 °C 39.9 °F /  4.4 °C 30.6in /  1034.5hPa Calm   2mph /  3.2km/h 93% 0in /  0.0mm 0 W/m2
19:45 41.7 °F /  5.4 °C 39.9 °F /  4.4 °C 30.5in /  1034.2hPa Calm     93% 0in /  0.0mm 0 W/m2
19:50 41.7 °F /  5.4 °C 39.9 °F /  4.4 °C 30.5in /  1034.2hPa Calm     93% 0in /  0.0mm 0 W/m2
19:55 41.7 °F /  5.4 °C 39.9 °F /  4.4 °C 30.5in /  1034.2hPa Calm     93% 0in /  0.0mm 0 W/m2
20:00 41.7 °F /  5.4 °C 39.9 °F /  4.4 °C 30.5in /  1034.2hPa Calm     93% 0in /  0.0mm 0 W/m2
20:05 41.5 °F /  5.3 °C 39.7 °F /  4.3 °C 30.5in /  1034.2hPa Calm     93% 0in /  0.0mm 0 W/m2
20:10 41.5 °F /  5.3 °C 39.7 °F /  4.3 °C 30.5in /  1034.2hPa Calm     93% 0in /  0.0mm 0 W/m2
20:15 41.5 °F /  5.3 °C 39.7 °F /  4.3 °C 30.5in /  1034.2hPa Calm     93% 0in /  0.0mm 0 W/m2
20:20 41.5 °F /  5.3 °C 39.7 °F /  4.3 °C 30.5in /  1034.2hPa Calm     93% 0in /  0.0mm 0 W/m2
20:25 41.4 °F /  5.2 °C 39.6 °F /  4.2 °C 30.5in /  1034.2hPa Calm     93% 0in /  0.0mm 0 W/m2
20:30 41.4 °F /  5.2 °C 39.6 °F /  4.2 °C 30.5in /  1034.2hPa Calm     93% 0in /  0.0mm 0 W/m2
20:35 41.4 °F /  5.2 °C 39.6 °F /  4.2 °C 30.5in /  1034.2hPa Calm     93% 0in /  0.0mm 0 W/m2
20:40 41.2 °F /  5.1 °C 39.4 °F /  4.1 °C 30.5in /  1034.2hPa Calm     93% 0in /  0.0mm 0 W/m2
20:45 41.2 °F /  5.1 °C 39.4 °F /  4.1 °C 30.5in /  1033.9hPa Calm     93% 0in /  0.0mm 0 W/m2
20:50 41.2 °F /  5.1 °C 39.4 °F /  4.1 °C 30.5in /  1033.9hPa Calm     93% 0in /  0.0mm 0 W/m2
20:55 41.2 °F /  5.1 °C 39.4 °F /  4.1 °C 30.5in /  1033.9hPa Calm     93% 0in /  0.0mm 0 W/m2
21:01 41.2 °F /  5.1 °C 39.4 °F /  4.1 °C 30.5in /  1033.9hPa Calm     93% 0in /  0.0mm 0 W/m2
21:06 41 °F /  5 °C 39.2 °F /  4 °C 30.5in /  1033.9hPa Calm     93% 0in /  0.0mm 0 W/m2
21:11 40.8 °F /  4.9 °C 39.2 °F /  4 °C 30.5in /  1033.9hPa Calm     94% 0in /  0.0mm 0 W/m2
21:16 40.8 °F /  4.9 °C 39.2 °F /  4 °C 30.5in /  1033.9hPa Calm     94% 0in /  0.0mm 0 W/m2
21:21 40.8 °F /  4.9 °C 39.2 °F /  4 °C 30.5in /  1033.5hPa Calm     94% 0in /  0.0mm 0 W/m2
21:26 40.8 °F /  4.9 °C 39.2 °F /  4 °C 30.5in /  1033.5hPa Calm     94% 0in /  0.0mm 0 W/m2
21:31 40.6 °F /  4.8 °C 39 °F /  3.9 °C 30.5in /  1033.5hPa Calm     94% 0in /  0.0mm 0 W/m2
21:36 40.6 °F /  4.8 °C 39 °F /  3.9 °C 30.5in /  1033.5hPa Calm     94% 0in /  0.0mm 0 W/m2
21:41 40.5 °F /  4.7 °C 38.8 °F /  3.8 °C 30.5in /  1033.5hPa Calm     94% 0in /  0.0mm 0 W/m2
21:46 40.5 °F /  4.7 °C 38.8 °F /  3.8 °C 30.5in /  1033.5hPa Calm     94% 0in /  0.0mm 0 W/m2
21:51 40.5 °F /  4.7 °C 38.8 °F /  3.8 °C 30.5in /  1033.5hPa Calm     94% 0in /  0.0mm 0 W/m2
21:56 40.3 °F /  4.6 °C 38.7 °F /  3.7 °C 30.5in /  1033.5hPa Calm     94% 0in /  0.0mm 0 W/m2
22:01 40.3 °F /  4.6 °C 38.7 °F /  3.7 °C 30.5in /  1033.5hPa Calm     94% 0in /  0.0mm 0 W/m2
22:06 40.3 °F /  4.6 °C 38.7 °F /  3.7 °C 30.5in /  1033.5hPa Calm     94% 0in /  0.0mm 0 W/m2
22:11 40.3 °F /  4.6 °C 38.7 °F /  3.7 °C 30.5in /  1033.2hPa Calm     94% 0in /  0.0mm 0 W/m2
22:16 40.3 °F /  4.6 °C 39 °F /  3.9 °C 30.5in /  1033.5hPa Calm     95% 0in /  0.0mm 0 W/m2
22:21 40.3 °F /  4.6 °C 39 °F /  3.9 °C 30.5in /  1033.2hPa Calm     95% 0in /  0.0mm 0 W/m2
22:26 40.3 °F /  4.6 °C 39 °F /  3.9 °C 30.5in /  1033.2hPa Calm     95% 0in /  0.0mm 0 W/m2
22:31 40.3 °F /  4.6 °C 39 °F /  3.9 °C 30.5in /  1033.2hPa Calm     95% 0in /  0.0mm 0 W/m2
22:36 40.1 °F /  4.5 °C 38.8 °F /  3.8 °C 30.5in /  1033.2hPa Calm     95% 0in /  0.0mm 0 W/m2
22:41 39.9 °F /  4.4 °C 38.7 °F /  3.7 °C 30.5in /  1032.8hPa Calm     95% 0in /  0.0mm 0 W/m2
22:46 39.9 °F /  4.4 °C 38.3 °F /  3.5 °C 30.5in /  1033.2hPa Calm     94% 0in /  0.0mm 0 W/m2
22:51 39.7 °F /  4.3 °C 38.1 °F /  3.4 °C 30.5in /  1033.2hPa Calm     94% 0in /  0.0mm 0 W/m2
22:56 39.7 °F /  4.3 °C 38.5 °F /  3.6 °C 30.5in /  1033.2hPa Calm     95% 0in /  0.0mm 0 W/m2
23:01 39.6 °F /  4.2 °C 38.3 °F /  3.5 °C 30.5in /  1033.2hPa Calm     95% 0in /  0.0mm 0 W/m2
23:06 39.4 °F /  4.1 °C 38.1 °F /  3.4 °C 30.5in /  1033.2hPa Calm     95% 0in /  0.0mm 0 W/m2
23:11 39.4 °F /  4.1 °C 37.8 °F /  3.2 °C 30.5in /  1033.2hPa Calm     94% 0in /  0.0mm 0 W/m2
23:16 39.2 °F /  4 °C 37.9 °F /  3.3 °C 30.5in /  1033.2hPa Calm     95% 0in /  0.0mm 0 W/m2
23:21 39 °F /  3.9 °C 37.8 °F /  3.2 °C 30.5in /  1033.2hPa Calm     95% 0in /  0.0mm 0 W/m2
23:26 39 °F /  3.9 °C 37.8 °F /  3.2 °C 30.5in /  1033.2hPa Calm     95% 0in /  0.0mm 0 W/m2
23:31 39 °F /  3.9 °C 37.8 °F /  3.2 °C 30.5in /  1032.8hPa Calm     95% 0in /  0.0mm 0 W/m2
23:36 38.8 °F /  3.8 °C 37.6 °F /  3.1 °C 30.5in /  1032.8hPa Calm     95% 0in /  0.0mm 0 W/m2
23:41 38.8 °F /  3.8 °C 37.6 °F /  3.1 °C 30.5in /  1032.8hPa Calm     95% 0in /  0.0mm 0 W/m2
23:46 38.8 °F /  3.8 °C 37.6 °F /  3.1 °C 30.5in /  1032.8hPa Calm     95% 0in /  0.0mm 0 W/m2
23:51 38.8 °F /  3.8 °C 37.6 °F /  3.1 °C 30.5in /  1032.8hPa Calm     95% 0in /  0.0mm 0 W/m2
23:56 38.8 °F /  3.8 °C 37.6 °F /  3.1 °C 30.5in /  1032.8hPa Calm     95% 0in /  0.0mm 0 W/m2
Juneau County Weather
Compliments of Weather Underground - 4 mb